Coosada, Alabama
Current Conditions -  °F | °C
As of 7:58 PM on Wednesday 17 Dec 2014 (Local Time) from KMXF Reporting Station
Clear Clear  
Wind Chill: 41°   Ceiling: Unl
Heat Index: 44°   Visibility: 10mi
Dew Point: 38°   Wind: 6mph
Humidity: 80%   Direction: 10°N
Pressure: 30.22"   Gusts: NA
Location:  32.5°N, 86.33°W
Report Text: KMXF 180158Z AUTO 01005KT 10SM CLR 07/04 A3022 RMK AO2 SLP237 T00680036
Loading
Personal Weather Stations






























Interactive Weather Map New forecast layout! Learn more

10-Day Weather Forecast

Advertisements
Track Severe Weather on mobile